createdAt,value
2018-02-06T00:00:54.447Z,77.50
2018-02-06T00:03:21.524Z,77.60
2018-02-06T00:05:48.168Z,77.50
2018-02-06T00:08:14.152Z,77.40
2018-02-06T00:10:41.456Z,77.10
2018-02-06T00:13:07.471Z,77.10
2018-02-06T00:15:33.600Z,77.20
2018-02-06T00:17:59.602Z,77.80
2018-02-06T00:20:25.573Z,77.80
2018-02-06T00:22:51.550Z,77.80
2018-02-06T00:25:17.517Z,77.50
2018-02-06T00:27:43.639Z,77.70
2018-02-06T00:30:09.619Z,78.90
2018-02-06T00:32:35.731Z,77.80
2018-02-06T00:35:01.744Z,77.90
2018-02-06T00:37:28.447Z,77.50
2018-02-06T00:39:54.526Z,77.60
2018-02-06T00:42:20.516Z,76.90
2018-02-06T00:44:46.525Z,76.90
2018-02-06T00:47:12.488Z,77.20
2018-02-06T00:49:38.553Z,77.40
2018-02-06T00:52:04.492Z,77.20
2018-02-06T00:54:30.483Z,76.90
2018-02-06T00:56:56.468Z,76.60
2018-02-06T00:59:23.219Z,76.70
2018-02-06T01:01:49.176Z,76.70
2018-02-06T01:04:15.264Z,76.10
2018-02-06T01:06:41.279Z,76.30
2018-02-06T01:09:08.004Z,76.80
2018-02-06T01:11:34.724Z,76.50
2018-02-06T01:14:00.659Z,76.50
2018-02-06T01:16:26.657Z,76.10
2018-02-06T01:18:52.644Z,76.20
2018-02-06T01:21:18.628Z,76.30
2018-02-06T01:23:44.735Z,75.90
2018-02-06T01:26:10.815Z,75.60
2018-02-06T01:28:36.836Z,76.10
2018-02-06T01:31:02.776Z,76.10
2018-02-06T01:33:28.722Z,76.10
2018-02-06T01:35:54.728Z,76.10
2018-02-06T01:38:20.672Z,75.60
2018-02-06T01:40:46.754Z,75.60
2018-02-06T01:43:12.699Z,75.90
2018-02-06T01:45:38.712Z,76.20
2018-02-06T01:48:04.692Z,75.30
2018-02-06T01:50:30.674Z,75.20
2018-02-06T01:52:56.633Z,75.20
2018-02-06T01:55:23.479Z,74.70
2018-02-06T01:57:50.200Z,74.80
2018-02-06T02:00:16.170Z,74.80
2018-02-06T02:02:42.175Z,74.80
2018-02-06T02:05:08.128Z,74.60
2018-02-06T02:07:34.123Z,75.20
2018-02-06T02:10:00.063Z,74.90
2018-02-06T02:12:26.892Z,74.30
2018-02-06T02:14:52.836Z,74.40
2018-02-06T02:17:18.771Z,74.70
2018-02-06T02:19:44.806Z,74.70
2018-02-06T02:22:10.695Z,74.90
2018-02-06T02:24:36.676Z,74.90
2018-02-06T02:27:03.531Z,74.80
2018-02-06T02:29:30.211Z,74.30
2018-02-06T02:31:56.279Z,74.30
2018-02-06T02:34:22.991Z,74.50
2018-02-06T02:36:48.948Z,74.60
2018-02-06T02:39:15.618Z,74.60
2018-02-06T02:41:41.591Z,74.60
2018-02-06T04:38:33.236Z,78.00
2018-02-06T04:40:59.183Z,79.20
2018-02-06T04:43:25.254Z,78.20
2018-02-06T04:45:51.179Z,78.10
2018-02-06T04:48:17.168Z,78.40
2018-02-06T04:50:43.871Z,78.70
2018-02-06T04:53:09.858Z,78.60
2018-02-06T04:55:35.801Z,78.40
2018-02-06T04:58:01.910Z,78.50
2018-02-06T05:00:27.885Z,78.20
2018-02-06T05:02:53.849Z,78.20
2018-02-06T05:05:19.807Z,78.10
2018-02-06T05:07:45.759Z,77.80
2018-02-06T05:10:12.516Z,78.00
2018-02-06T05:12:39.198Z,78.00
2018-02-06T05:15:05.291Z,77.90
2018-02-06T05:17:31.280Z,77.70
2018-02-06T05:19:57.258Z,77.80
2018-02-06T05:22:23.686Z,77.90
2018-02-06T05:24:49.669Z,78.00
2018-02-06T05:27:17.029Z,77.60
2018-02-06T05:29:43.732Z,77.20
2018-02-06T05:32:09.808Z,77.10
2018-02-06T05:34:35.741Z,76.40
2018-02-06T05:37:01.716Z,76.50
2018-02-06T05:39:27.650Z,76.20
2018-02-06T05:41:54.336Z,76.10
2018-02-06T05:44:20.342Z,76.10
2018-02-06T05:46:46.288Z,75.60
2018-02-06T05:49:12.320Z,75.60
2018-02-06T05:51:38.299Z,75.80
2018-02-06T05:54:04.395Z,76.40
2018-02-06T05:56:30.392Z,76.50
2018-02-06T05:58:57.226Z,77.00
2018-02-06T06:01:23.201Z,77.00
2018-02-06T06:03:49.895Z,77.20
2018-02-06T06:06:15.908Z,77.10
2018-02-06T06:08:41.848Z,76.80
2018-02-06T06:11:07.845Z,76.80
2018-02-06T06:13:33.812Z,76.80
2018-02-06T06:15:59.751Z,77.20
2018-02-06T06:18:26.468Z,77.20
2018-02-06T06:20:52.407Z,77.20
2018-02-06T06:23:19.231Z,76.70
2018-02-06T06:25:45.167Z,76.60
2018-02-06T06:28:12.024Z,76.50
2018-02-06T06:30:39.624Z,76.50
2018-02-06T06:33:05.572Z,76.50
2018-02-06T06:35:31.569Z,76.50
2018-02-06T06:37:57.531Z,76.70
2018-02-06T06:40:23.596Z,76.90
2018-02-06T06:42:49.544Z,76.80
2018-02-06T06:45:15.478Z,77.10
2018-02-06T06:47:41.468Z,77.20
2018-02-06T06:50:07.406Z,77.40
2018-02-06T06:52:33.350Z,77.40
2018-02-06T06:54:59.344Z,77.60
2018-02-06T06:57:25.283Z,77.70
2018-02-06T06:59:51.242Z,77.70
2018-02-06T07:02:18.066Z,76.80
2018-02-06T07:04:44.039Z,76.80
2018-02-06T07:07:09.995Z,77.20
2018-02-06T07:09:35.991Z,77.30
2018-02-06T07:12:01.960Z,77.30
2018-02-06T07:14:27.915Z,77.00
2018-02-06T07:16:54.042Z,77.70
2018-02-06T07:19:20.000Z,76.80
2018-02-06T07:21:45.965Z,77.50
2018-02-06T07:24:12.663Z,77.50
2018-02-06T07:26:38.808Z,77.60
2018-02-06T07:29:04.774Z,77.40
2018-02-06T07:31:30.699Z,77.00
2018-02-06T07:33:56.810Z,76.90
2018-02-06T07:36:22.747Z,76.70
2018-02-06T07:38:48.744Z,76.80
2018-02-06T07:41:15.442Z,76.30
2018-02-06T07:43:41.501Z,76.30
2018-02-06T07:46:08.224Z,76.80
2018-02-06T07:48:34.182Z,76.80
2018-02-06T07:51:00.198Z,76.90
2018-02-06T07:53:26.174Z,77.10
2018-02-06T07:55:52.230Z,77.30
2018-02-06T07:58:18.152Z,77.10
2018-02-06T08:00:45.009Z,77.10
2018-02-06T08:03:10.945Z,77.10
2018-02-06T08:05:36.888Z,77.10
2018-02-06T08:08:02.879Z,77.10
2018-02-06T08:10:28.843Z,77.20
2018-02-06T08:12:54.811Z,76.70
2018-02-06T08:15:20.758Z,76.30
2018-02-06T08:17:46.841Z,76.30
2018-02-06T08:20:13.535Z,76.10
2018-02-06T08:22:39.622Z,76.20
2018-02-06T08:25:06.304Z,76.60
2018-02-06T08:27:32.356Z,76.60
2018-02-06T08:29:58.351Z,77.30
2018-02-06T08:32:24.299Z,76.80
2018-02-06T08:34:50.451Z,76.70
2018-02-06T08:37:17.142Z,76.70
2018-02-06T08:39:43.235Z,76.70
2018-02-06T08:42:09.177Z,77.00
2018-02-06T08:44:35.124Z,76.40
2018-02-06T08:47:01.105Z,76.60
2018-02-06T08:49:27.055Z,76.80
2018-02-06T08:51:53.176Z,77.00
2018-02-06T08:54:19.871Z,77.20
2018-02-06T08:56:45.842Z,77.10
2018-02-06T08:59:11.830Z,77.20
2018-02-06T09:01:37.811Z,77.00
2018-02-06T09:04:03.792Z,76.90
2018-02-06T09:06:29.747Z,76.80
2018-02-06T09:08:55.820Z,77.00
2018-02-06T09:11:21.777Z,77.10
2018-02-06T09:13:47.778Z,77.50
2018-02-06T09:16:13.760Z,77.30
2018-02-06T09:18:40.469Z,75.30
2018-02-06T09:21:06.440Z,75.30
2018-02-06T09:23:33.151Z,75.60
2018-02-06T09:25:59.632Z,75.60
2018-02-06T09:28:25.794Z,76.20
2018-02-06T09:30:51.851Z,76.20
2018-02-06T09:33:19.165Z,75.40
2018-02-06T09:35:45.811Z,75.40
2018-02-06T09:38:12.479Z,75.90
2018-02-06T09:40:39.835Z,76.00
2018-02-06T09:43:08.310Z,75.40
2018-02-06T09:45:35.058Z,75.50
2018-02-06T09:48:01.545Z,75.50
2018-02-06T09:50:28.628Z,75.60
2018-02-06T09:52:56.045Z,75.00
2018-02-06T09:55:22.591Z,75.00
2018-02-06T09:57:48.948Z,75.70
2018-02-06T10:00:14.938Z,76.20
2018-02-06T10:02:40.974Z,75.80
2018-02-06T10:05:06.964Z,75.30
2018-02-06T10:07:32.946Z,75.60
2018-02-06T10:09:58.899Z,75.50
2018-02-06T10:12:24.852Z,75.80
2018-02-06T10:14:50.798Z,74.70
2018-02-06T10:17:16.775Z,74.50
2018-02-06T10:19:42.719Z,74.90
2018-02-06T10:22:08.663Z,75.10
2018-02-06T10:24:34.764Z,75.60
2018-02-06T10:27:00.723Z,75.60
2018-02-06T10:29:27.442Z,75.50
2018-02-06T10:31:53.388Z,75.40
2018-02-06T10:34:20.238Z,74.80
2018-02-06T10:36:46.924Z,74.90
2018-02-06T10:39:12.987Z,74.90
2018-02-06T10:41:39.679Z,73.00
2018-02-06T10:44:05.642Z,73.00
2018-02-06T10:46:31.586Z,74.10
2018-02-06T10:48:58.311Z,74.30
2018-02-06T10:51:24.228Z,74.20
2018-02-06T10:53:50.161Z,75.00
2018-02-06T10:56:16.972Z,74.60
2018-02-06T10:58:42.929Z,74.60
2018-02-06T11:01:09.681Z,74.00
2018-02-06T11:03:35.582Z,74.00
2018-02-06T11:06:01.532Z,74.20
2018-02-06T11:08:27.468Z,74.70
2018-02-06T11:10:53.436Z,75.30
2018-02-06T11:13:19.488Z,75.20
2018-02-06T11:15:45.435Z,76.00
2018-02-06T11:18:11.406Z,74.50
2018-02-06T11:20:37.367Z,74.60
2018-02-06T11:23:03.299Z,75.10
2018-02-06T11:25:29.362Z,74.70
2018-02-06T11:27:55.282Z,74.50
2018-02-06T11:30:21.252Z,72.80
2018-02-06T11:32:47.193Z,72.70
2018-02-06T11:35:13.315Z,72.30
2018-02-06T11:37:39.247Z,71.20
2018-02-06T11:40:05.325Z,70.90
2018-02-06T11:42:31.299Z,70.80
2018-02-06T11:44:57.371Z,70.00
2018-02-06T11:47:24.084Z,70.40
2018-02-06T11:49:50.063Z,69.60
2018-02-06T11:52:16.025Z,70.20
2018-02-06T11:54:41.986Z,70.70
2018-02-06T11:57:08.844Z,69.20
2018-02-06T11:59:35.708Z,69.10
2018-02-06T12:02:01.686Z,68.90
2018-02-06T12:04:28.376Z,70.40
2018-02-06T12:06:54.343Z,70.40
2018-02-06T12:09:21.064Z,69.40
2018-02-06T12:11:47.023Z,69.40
2018-02-06T12:14:13.099Z,69.30
2018-02-06T12:16:39.047Z,68.30
2018-02-06T12:19:05.775Z,69.40
2018-02-06T12:21:31.728Z,69.30
2018-02-06T12:23:57.712Z,69.50
2018-02-06T12:26:23.796Z,68.20
2018-02-06T12:28:49.920Z,68.80
2018-02-06T12:31:15.877Z,68.80
2018-02-06T12:33:41.823Z,68.00
2018-02-06T12:36:08.665Z,68.70
2018-02-06T12:38:34.611Z,68.70
2018-02-06T12:41:00.574Z,69.60
2018-02-06T12:43:27.146Z,69.40
2018-02-06T12:45:53.156Z,69.90
2018-02-06T12:48:19.098Z,69.90
2018-02-06T12:50:45.088Z,70.20
2018-02-06T12:53:11.028Z,70.90
2018-02-06T12:55:37.718Z,69.20
2018-02-06T12:58:03.679Z,68.70
2018-02-06T13:00:29.620Z,68.70
2018-02-06T13:02:56.431Z,69.50
2018-02-06T13:05:22.385Z,69.60
2018-02-06T13:07:49.079Z,70.00
2018-02-06T13:10:15.042Z,70.00
2018-02-06T13:12:41.719Z,69.20
2018-02-06T13:15:07.732Z,69.90
2018-02-06T13:17:33.678Z,68.60
2018-02-06T13:19:59.798Z,69.00
2018-02-06T13:22:25.747Z,69.80
2018-02-06T13:24:51.718Z,71.40
2018-02-06T13:27:17.690Z,71.00
2018-02-06T13:29:43.640Z,71.30
2018-02-06T13:32:10.343Z,70.50
2018-02-06T13:34:36.567Z,70.60
2018-02-06T13:37:02.525Z,69.80
2018-02-06T13:39:29.275Z,68.90
2018-02-06T13:41:55.987Z,68.50
2018-02-06T13:44:22.000Z,68.50
2018-02-06T13:46:47.953Z,68.50
2018-02-06T13:49:14.691Z,68.80
2018-02-06T13:51:41.371Z,67.60
2018-02-06T13:54:08.064Z,67.30
2018-02-06T13:56:34.791Z,68.20
2018-02-06T13:59:00.752Z,68.20
2018-02-06T14:01:26.773Z,67.60
2018-02-06T14:03:52.752Z,67.60
2018-02-06T14:06:18.701Z,67.50
2018-02-06T14:08:45.416Z,67.20
2018-02-06T14:11:11.411Z,67.20
2018-02-06T14:13:37.386Z,67.10
2018-02-06T14:16:04.115Z,66.20
2018-02-06T14:18:30.200Z,66.20
2018-02-06T14:20:56.163Z,66.50
2018-02-06T14:23:22.858Z,64.60
2018-02-06T14:25:48.837Z,64.60
2018-02-06T14:28:15.645Z,64.70
2018-02-06T14:30:41.783Z,64.60
2018-02-06T14:33:07.723Z,65.50
2018-02-06T14:35:34.432Z,66.10
2018-02-06T14:38:00.429Z,66.00
2018-02-06T14:40:26.377Z,65.40
2018-02-06T14:42:52.351Z,65.60
2018-02-06T14:45:18.291Z,65.90
2018-02-06T14:47:44.407Z,64.80
2018-02-06T14:50:10.343Z,64.00
2018-02-06T14:52:36.312Z,65.50
2018-02-06T14:55:03.157Z,62.80
2018-02-06T14:57:29.843Z,63.40
2018-02-06T14:59:55.826Z,63.40
2018-02-06T15:02:22.503Z,64.00
2018-02-06T15:04:48.621Z,64.00
2018-02-06T15:07:14.610Z,64.40
2018-02-06T15:09:41.363Z,65.20
2018-02-06T15:12:08.055Z,65.20
2018-02-06T15:14:34.018Z,65.20
2018-02-06T15:17:00.001Z,65.10
2018-02-06T15:19:25.958Z,65.40
2018-02-06T15:21:52.665Z,65.60
2018-02-06T15:24:18.648Z,65.60
2018-02-06T15:26:44.606Z,66.10
2018-02-06T15:29:10.579Z,66.00
2018-02-06T15:31:36.533Z,65.90
2018-02-06T15:34:02.643Z,66.30
2018-02-06T15:36:28.580Z,66.30
2018-02-06T15:38:54.682Z,66.40
2018-02-06T15:41:20.632Z,67.00
2018-02-06T15:43:46.601Z,67.00
2018-02-06T15:46:13.347Z,67.30
2018-02-06T15:48:40.037Z,67.40
2018-02-06T15:51:06.009Z,67.40
2018-02-06T15:53:32.692Z,68.40
2018-02-06T15:55:58.699Z,68.40
2018-02-06T15:58:25.391Z,68.90
2018-02-06T16:00:51.342Z,68.90
2018-02-06T16:03:17.427Z,68.80
2018-02-06T16:05:43.371Z,69.00
2018-02-06T16:08:10.092Z,69.40
2018-02-06T16:10:36.027Z,69.30
2018-02-06T16:13:02.821Z,69.90
2018-02-06T16:15:28.773Z,69.80
2018-02-06T16:17:54.742Z,70.30
2018-02-06T16:20:20.721Z,70.40
2018-02-06T16:22:46.665Z,70.10
2018-02-06T16:25:12.676Z,70.10
2018-02-06T16:27:39.369Z,69.90
2018-02-06T16:30:05.381Z,69.90
2018-02-06T16:32:31.380Z,70.00
2018-02-06T16:34:57.457Z,69.90
2018-02-06T16:37:23.424Z,71.00
2018-02-06T16:39:50.123Z,69.80
2018-02-06T16:42:16.130Z,69.80
2018-02-06T16:44:42.060Z,69.90
2018-02-06T16:47:08.165Z,70.10
2018-02-06T16:49:34.120Z,70.30
2018-02-06T16:52:00.064Z,70.50
2018-02-06T16:54:26.778Z,71.00
2018-02-06T16:56:52.768Z,70.90
2018-02-06T16:59:18.757Z,71.30
2018-02-06T17:01:45.437Z,71.40
2018-02-06T17:04:11.394Z,71.30
2018-02-06T17:06:37.478Z,71.20
2018-02-06T17:09:03.436Z,71.50
2018-02-06T17:11:29.411Z,72.20
2018-02-06T17:13:56.132Z,72.80
2018-02-06T17:16:22.095Z,72.90
2018-02-06T17:18:48.059Z,73.20
2018-02-06T17:21:14.767Z,73.90
2018-02-06T17:23:40.852Z,73.80
2018-02-06T17:26:06.841Z,74.30
2018-02-06T17:28:33.715Z,75.50
2018-02-06T17:30:59.660Z,75.40
2018-02-06T17:33:25.640Z,76.00
2018-02-06T17:35:52.324Z,77.10
2018-02-06T17:38:18.258Z,77.10
2018-02-06T17:40:44.235Z,77.20
2018-02-06T17:43:10.175Z,77.20
2018-02-06T17:45:36.257Z,77.70
2018-02-06T17:48:02.954Z,77.90
2018-02-06T17:50:28.925Z,77.80
2018-02-06T17:52:55.673Z,77.40
2018-02-06T17:55:22.347Z,76.70
2018-02-06T17:57:48.335Z,76.80
2018-02-06T18:00:15.041Z,75.50
2018-02-06T18:02:41.132Z,75.50
2018-02-06T18:05:07.076Z,75.30
2018-02-06T18:07:33.057Z,75.10
2018-02-06T18:09:59.033Z,75.00
2018-02-06T18:12:24.994Z,74.60
2018-02-06T18:14:50.975Z,74.10
2018-02-06T18:17:16.928Z,74.70
2018-02-06T18:19:42.949Z,74.00
2018-02-06T18:22:09.788Z,74.60
2018-02-06T18:24:37.079Z,74.60
2018-02-06T18:27:03.276Z,74.60
2018-02-06T18:29:29.287Z,74.70
2018-02-06T18:31:57.507Z,74.10
2018-02-06T18:34:23.949Z,74.10
2018-02-06T18:36:50.299Z,74.20
2018-02-06T18:39:17.408Z,74.10
2018-02-06T18:41:43.606Z,74.30
2018-02-06T18:44:10.363Z,73.80
2018-02-06T18:46:36.387Z,73.80
2018-02-06T18:49:02.548Z,73.90
2018-02-06T18:51:28.796Z,73.70
2018-02-06T18:53:54.809Z,73.60
2018-02-06T18:56:20.861Z,73.30
2018-02-06T18:58:47.997Z,73.00
2018-02-06T19:01:14.016Z,73.00
2018-02-06T19:03:40.312Z,72.90
2018-02-06T19:06:17.173Z,72.70
2018-02-06T19:14:17.229Z,73.30
2018-02-06T19:16:53.267Z,73.40
2018-02-06T19:19:20.845Z,73.80
2018-02-06T19:21:47.181Z,73.80
2018-02-06T19:24:13.270Z,73.80
2018-02-06T19:26:40.359Z,73.40
2018-02-06T19:29:07.003Z,73.40
2018-02-06T19:31:34.283Z,73.00
2018-02-06T19:34:01.503Z,72.70
2018-02-06T19:36:28.721Z,72.60
2018-02-06T19:38:55.733Z,72.60
2018-02-06T19:41:22.685Z,72.60
2018-02-06T19:43:49.138Z,72.50
2018-02-06T19:46:16.534Z,72.80
2018-02-06T19:48:43.017Z,71.90
2018-02-06T19:51:09.074Z,71.70
2018-02-06T19:53:36.053Z,72.40
2018-02-06T19:56:04.410Z,71.50
2018-02-06T19:58:30.459Z,71.50
2018-02-06T20:00:57.363Z,71.40
2018-02-06T20:03:24.125Z,71.40
2018-02-06T20:05:51.503Z,71.60
2018-02-06T20:08:18.539Z,71.60
2018-02-06T20:10:44.804Z,71.40
2018-02-06T20:13:10.819Z,71.40
2018-02-06T20:15:37.419Z,71.50
2018-02-06T20:18:04.360Z,71.50
2018-02-06T20:20:30.385Z,71.60
2018-02-06T20:22:56.464Z,71.70
2018-02-06T20:25:22.472Z,71.50
2018-02-06T20:27:48.660Z,71.30
2018-02-06T20:30:14.880Z,71.20
2018-02-06T20:32:41.034Z,71.50
2018-02-06T20:35:07.056Z,71.90
2018-02-06T20:37:33.087Z,71.70
2018-02-06T20:39:59.082Z,71.70
2018-02-06T20:42:25.533Z,71.60
2018-02-06T20:44:51.499Z,71.80
2018-02-06T20:47:17.475Z,72.00
2018-02-06T20:49:43.594Z,72.00
2018-02-06T20:52:09.550Z,71.90
2018-02-06T20:54:35.585Z,71.80
2018-02-06T20:57:02.300Z,71.70
2018-02-06T20:59:28.333Z,71.70
2018-02-06T21:01:54.516Z,71.70
2018-02-06T21:04:21.240Z,71.60
2018-02-06T21:06:47.236Z,71.70
2018-02-06T21:09:13.209Z,72.00
2018-02-06T21:11:39.239Z,72.20
2018-02-06T21:14:05.207Z,72.20
2018-02-06T21:16:31.207Z,72.20
2018-02-06T21:18:57.189Z,73.10
2018-02-06T21:21:23.176Z,72.50
2018-02-06T21:23:49.274Z,72.40
2018-02-06T21:26:15.244Z,72.00
2018-02-06T21:28:42.136Z,72.60
2018-02-06T21:31:08.100Z,72.60
2018-02-06T21:33:34.816Z,72.70
2018-02-06T21:36:00.768Z,72.60
2018-02-06T21:38:27.536Z,72.70
2018-02-06T21:40:53.520Z,72.70
2018-02-06T21:43:20.228Z,72.70
2018-02-06T21:45:46.340Z,72.60
2018-02-06T21:48:12.320Z,72.70
2018-02-06T21:50:38.304Z,72.40
2018-02-06T21:53:04.290Z,72.50
2018-02-06T21:55:30.274Z,72.90
2018-02-06T21:57:57.007Z,73.20
2018-02-06T22:00:22.940Z,73.30
2018-02-06T22:02:49.808Z,74.30
2018-02-06T22:05:15.768Z,74.20
2018-02-06T22:07:41.731Z,74.50
2018-02-06T22:10:08.419Z,73.90
2018-02-06T22:12:34.412Z,73.90
2018-02-06T22:15:00.379Z,73.50
2018-02-06T22:17:26.555Z,73.30
2018-02-06T22:19:52.695Z,73.00
2018-02-06T22:22:18.649Z,72.70
2018-02-06T22:24:44.661Z,72.80
2018-02-06T22:27:10.741Z,73.20
2018-02-06T22:29:37.451Z,73.20
2018-02-06T22:32:03.603Z,73.30
2018-02-06T22:34:29.600Z,73.10
2018-02-06T22:36:55.544Z,72.80
2018-02-06T22:39:21.555Z,72.60
2018-02-06T22:41:47.520Z,72.70
2018-02-06T22:44:13.480Z,72.60
2018-02-06T22:46:39.886Z,72.60
2018-02-06T22:49:05.849Z,72.50
2018-02-06T22:51:32.562Z,72.60
2018-02-06T22:53:58.540Z,72.50
2018-02-06T22:56:24.497Z,72.40
2018-02-06T22:58:50.508Z,72.70
2018-02-06T23:01:16.457Z,72.80
2018-02-06T23:03:42.400Z,72.80
2018-02-06T23:06:08.473Z,73.00
2018-02-06T23:08:34.416Z,73.20
2018-02-06T23:11:00.404Z,73.30
2018-02-06T23:13:26.399Z,73.70
2018-02-06T23:15:53.179Z,73.70
2018-02-06T23:18:19.147Z,73.70
2018-02-06T23:20:45.263Z,73.60
2018-02-06T23:23:11.200Z,73.50
2018-02-06T23:25:37.144Z,73.40
2018-02-06T23:28:03.144Z,73.30
2018-02-06T23:30:29.112Z,73.40
2018-02-06T23:32:55.092Z,73.30
2018-02-06T23:35:21.952Z,73.50
2018-02-06T23:37:48.806Z,73.70
2018-02-06T23:40:14.811Z,73.70
2018-02-06T23:42:41.530Z,74.10
2018-02-06T23:45:07.498Z,74.00
2018-02-06T23:47:33.481Z,73.90
2018-02-06T23:49:59.555Z,73.80
2018-02-06T23:52:25.529Z,73.90
2018-02-06T23:54:52.332Z,74.30
2018-02-06T23:57:18.300Z,74.10
2018-02-06T23:59:44.983Z,74.70
